createdAt,value
2019-02-20T17:12:35.637Z,19.47
2019-02-20T17:45:11.634Z,18.97
2019-02-20T17:50:42.763Z,20.20
2019-02-20T18:00:48.754Z,19.70
2019-02-20T18:21:04.779Z,23.17
2019-02-20T18:24:03.579Z,23.07
2019-02-20T18:26:46.066Z,19.00
2019-02-20T18:29:24.272Z,19.93
2019-02-20T18:31:57.364Z,19.73
2019-02-20T18:34:44.825Z,20.60
2019-02-20T18:43:44.873Z,18.43
2019-02-20T18:46:14.968Z,20.63
2019-02-20T18:48:45.989Z,20.63
2019-02-20T18:51:17.214Z,19.90
2019-02-20T18:53:48.256Z,18.00
2019-02-20T18:56:18.198Z,21.60
2019-02-20T18:58:48.298Z,23.73
2019-02-20T19:01:18.215Z,23.80
2019-02-20T19:03:49.843Z,21.70
2019-02-20T19:06:19.973Z,23.70
2019-02-20T19:08:55.631Z,34.47
2019-02-20T19:11:37.461Z,39.10
2019-02-20T19:14:25.404Z,45.47
2019-02-20T19:17:01.551Z,36.87
2019-02-20T19:19:49.544Z,23.53
2019-02-20T19:22:43.269Z,19.63
2019-02-20T19:25:40.013Z,18.63
2019-02-20T19:28:29.672Z,18.33
2019-02-20T19:31:26.481Z,17.33
2019-02-20T19:34:11.475Z,16.67
2019-02-20T19:36:44.530Z,16.23
2019-02-20T19:39:32.841Z,18.20
2019-02-20T19:42:28.183Z,17.27
2019-02-20T19:45:18.007Z,17.50
2019-02-20T19:48:21.326Z,15.93
2019-02-20T19:51:09.431Z,14.67
2019-02-20T19:53:54.746Z,14.60
2019-02-20T19:56:49.879Z,15.17
2019-02-20T19:59:32.227Z,15.80
2019-02-20T20:02:32.404Z,13.70
2019-02-20T20:05:08.501Z,15.80
2019-02-20T20:08:13.518Z,15.40
2019-02-20T20:11:13.402Z,14.57
2019-02-20T20:17:18.301Z,12.37
2019-02-20T20:20:14.298Z,13.57
2019-02-20T20:22:53.857Z,14.10
2019-02-20T20:25:27.378Z,12.73
2019-02-20T20:28:15.597Z,14.20
2019-02-20T20:31:01.688Z,13.07
2019-02-20T20:33:52.157Z,12.97
2019-02-20T20:36:31.172Z,13.40
2019-02-20T20:39:28.219Z,14.20
2019-02-20T20:42:16.479Z,13.50
2019-02-20T20:45:05.177Z,14.67
2019-02-20T20:48:11.532Z,13.27
2019-02-20T20:50:38.739Z,13.93
2019-02-20T20:53:30.289Z,13.07
2019-02-20T20:56:13.255Z,12.83
2019-02-20T20:59:01.863Z,12.07
2019-02-20T21:01:47.218Z,13.90
2019-02-20T21:04:32.605Z,15.60
2019-02-20T21:07:25.443Z,15.77
2019-02-20T21:09:58.707Z,15.27
2019-02-20T21:12:34.882Z,15.90
2019-02-20T21:15:34.682Z,16.07
2019-02-20T21:18:39.788Z,16.20
2019-02-20T21:21:13.152Z,15.73
2019-02-20T21:24:04.781Z,15.97
2019-02-20T21:27:04.535Z,14.67
2019-02-20T21:29:44.005Z,14.03
2019-02-20T21:32:17.306Z,13.73
